sensor_id;sensor_type;location;lat;lon;timestamp;temperature;humidity
39519;DHT22;25200;53.394;10.414;2023-06-22T00:00:57;20.30;61.50
39519;DHT22;25200;53.394;10.414;2023-06-22T00:03:24;20.30;61.70
39519;DHT22;25200;53.394;10.414;2023-06-22T00:05:51;20.30;61.60
39519;DHT22;25200;53.394;10.414;2023-06-22T00:08:18;20.30;62.80
39519;DHT22;25200;53.394;10.414;2023-06-22T00:10:44;20.20;61.80
39519;DHT22;25200;53.394;10.414;2023-06-22T00:13:10;20.20;62.30
39519;DHT22;25200;53.394;10.414;2023-06-22T00:15:38;20.20;62.40
39519;DHT22;25200;53.394;10.414;2023-06-22T00:18:08;20.10;61.90
39519;DHT22;25200;53.394;10.414;2023-06-22T00:20:34;20.10;62.30
39519;DHT22;25200;53.394;10.414;2023-06-22T00:23:03;20.10;62.30
39519;DHT22;25200;53.394;10.414;2023-06-22T00:25:37;20.10;62.40
39519;DHT22;25200;53.394;10.414;2023-06-22T00:28:05;20.10;62.10
39519;DHT22;25200;53.394;10.414;2023-06-22T00:30:31;20.10;62.30
39519;DHT22;25200;53.394;10.414;2023-06-22T00:32:58;20.00;62.80
39519;DHT22;25200;53.394;10.414;2023-06-22T00:35:24;20.00;62.20
39519;DHT22;25200;53.394;10.414;2023-06-22T00:37:55;20.00;62.70
39519;DHT22;25200;53.394;10.414;2023-06-22T00:40:30;19.90;62.30
39519;DHT22;25200;53.394;10.414;2023-06-22T00:42:57;19.90;62.50
39519;DHT22;25200;53.394;10.414;2023-06-22T00:45:26;19.90;62.50
39519;DHT22;25200;53.394;10.414;2023-06-22T00:47:54;19.90;62.90
39519;DHT22;25200;53.394;10.414;2023-06-22T00:50:23;19.90;63.10
39519;DHT22;25200;53.394;10.414;2023-06-22T00:52:52;19.80;62.90
39519;DHT22;25200;53.394;10.414;2023-06-22T00:55:20;19.80;62.40
39519;DHT22;25200;53.394;10.414;2023-06-22T00:57:46;19.80;62.80
39519;DHT22;25200;53.394;10.414;2023-06-22T01:00:16;19.80;62.80
39519;DHT22;25200;53.394;10.414;2023-06-22T01:02:44;19.70;62.70
39519;DHT22;25200;53.394;10.414;2023-06-22T01:05:18;19.80;62.60
39519;DHT22;25200;53.394;10.414;2023-06-22T01:16:29;19.60;61.40
39519;DHT22;25200;53.394;10.414;2023-06-22T01:18:57;19.60;61.10
39519;DHT22;25200;53.394;10.414;2023-06-22T01:21:28;19.60;61.00
39519;DHT22;25200;53.394;10.414;2023-06-22T01:23:59;19.60;61.30
39519;DHT22;25200;53.394;10.414;2023-06-22T01:28:57;19.60;61.10
39519;DHT22;25200;53.394;10.414;2023-06-22T01:31:26;19.60;61.20
39519;DHT22;25200;53.394;10.414;2023-06-22T01:34:01;19.60;60.90
39519;DHT22;25200;53.394;10.414;2023-06-22T01:36:28;19.60;61.00
39519;DHT22;25200;53.394;10.414;2023-06-22T01:38:55;19.60;61.10
39519;DHT22;25200;53.394;10.414;2023-06-22T01:41:24;19.60;60.90
39519;DHT22;25200;53.394;10.414;2023-06-22T01:43:51;19.60;60.90
39519;DHT22;25200;53.394;10.414;2023-06-22T01:46:18;19.60;61.00
39519;DHT22;25200;53.394;10.414;2023-06-22T01:48:45;19.60;61.20
39519;DHT22;25200;53.394;10.414;2023-06-22T01:51:12;19.50;61.10
39519;DHT22;25200;53.394;10.414;2023-06-22T01:53:37;19.50;61.10
39519;DHT22;25200;53.394;10.414;2023-06-22T01:56:04;19.50;61.10
39519;DHT22;25200;53.394;10.414;2023-06-22T01:58:30;19.50;61.30
39519;DHT22;25200;53.394;10.414;2023-06-22T02:01:20;19.40;61.10
39519;DHT22;25200;53.394;10.414;2023-06-22T02:04:13;19.40;61.30
39519;DHT22;25200;53.394;10.414;2023-06-22T02:06:43;19.40;61.60
39519;DHT22;25200;53.394;10.414;2023-06-22T02:09:17;19.40;61.00
39519;DHT22;25200;53.394;10.414;2023-06-22T02:11:45;19.40;61.40
39519;DHT22;25200;53.394;10.414;2023-06-22T02:14:12;19.40;61.00
39519;DHT22;25200;53.394;10.414;2023-06-22T02:16:39;19.30;60.90
39519;DHT22;25200;53.394;10.414;2023-06-22T02:19:05;19.30;61.20
39519;DHT22;25200;53.394;10.414;2023-06-22T02:21:32;19.30;61.00
39519;DHT22;25200;53.394;10.414;2023-06-22T02:23:58;19.30;62.40
39519;DHT22;25200;53.394;10.414;2023-06-22T02:26:25;19.20;60.80
39519;DHT22;25200;53.394;10.414;2023-06-22T02:28:51;19.30;61.80
39519;DHT22;25200;53.394;10.414;2023-06-22T02:31:17;19.20;61.20
39519;DHT22;25200;53.394;10.414;2023-06-22T02:33:43;19.20;61.20
39519;DHT22;25200;53.394;10.414;2023-06-22T02:36:10;19.20;61.20
39519;DHT22;25200;53.394;10.414;2023-06-22T02:38:38;19.20;61.30
39519;DHT22;25200;53.394;10.414;2023-06-22T02:41:10;19.20;61.20
39519;DHT22;25200;53.394;10.414;2023-06-22T02:43:38;19.20;61.20
39519;DHT22;25200;53.394;10.414;2023-06-22T02:46:04;19.10;61.30
39519;DHT22;25200;53.394;10.414;2023-06-22T02:48:29;19.10;61.50
39519;DHT22;25200;53.394;10.414;2023-06-22T02:50:55;19.10;61.40
39519;DHT22;25200;53.394;10.414;2023-06-22T02:53:21;19.10;61.40
39519;DHT22;25200;53.394;10.414;2023-06-22T02:55:46;19.10;61.50
39519;DHT22;25200;53.394;10.414;2023-06-22T02:58:12;19.10;61.50
39519;DHT22;25200;53.394;10.414;2023-06-22T03:00:37;19.10;61.20
39519;DHT22;25200;53.394;10.414;2023-06-22T03:03:04;19.00;61.10
39519;DHT22;25200;53.394;10.414;2023-06-22T03:05:30;19.00;61.30
39519;DHT22;25200;53.394;10.414;2023-06-22T03:07:58;19.00;61.20
39519;DHT22;25200;53.394;10.414;2023-06-22T03:10:23;19.00;61.70
39519;DHT22;25200;53.394;10.414;2023-06-22T03:12:49;19.00;61.20
39519;DHT22;25200;53.394;10.414;2023-06-22T03:15:15;19.00;61.20
39519;DHT22;25200;53.394;10.414;2023-06-22T03:17:42;18.90;61.40
39519;DHT22;25200;53.394;10.414;2023-06-22T03:20:09;18.90;61.40
39519;DHT22;25200;53.394;10.414;2023-06-22T03:22:41;18.90;61.40
39519;DHT22;25200;53.394;10.414;2023-06-22T03:25:08;18.90;61.50
39519;DHT22;25200;53.394;10.414;2023-06-22T03:27:39;18.90;61.60
39519;DHT22;25200;53.394;10.414;2023-06-22T03:30:06;18.90;61.50
39519;DHT22;25200;53.394;10.414;2023-06-22T03:32:32;18.90;61.50
39519;DHT22;25200;53.394;10.414;2023-06-22T03:34:58;18.90;61.60
39519;DHT22;25200;53.394;10.414;2023-06-22T03:37:28;18.90;61.90
39519;DHT22;25200;53.394;10.414;2023-06-22T03:39:54;18.90;61.20
39519;DHT22;25200;53.394;10.414;2023-06-22T03:42:19;18.90;61.20
39519;DHT22;25200;53.394;10.414;2023-06-22T03:44:45;18.90;61.40
39519;DHT22;25200;53.394;10.414;2023-06-22T03:47:11;18.90;61.40
39519;DHT22;25200;53.394;10.414;2023-06-22T03:49:37;18.90;61.40
39519;DHT22;25200;53.394;10.414;2023-06-22T03:52:03;18.90;61.60
39519;DHT22;25200;53.394;10.414;2023-06-22T03:54:29;19.00;61.40
39519;DHT22;25200;53.394;10.414;2023-06-22T03:56:56;19.00;61.30
39519;DHT22;25200;53.394;10.414;2023-06-22T03:59:22;19.00;61.50
39519;DHT22;25200;53.394;10.414;2023-06-22T04:01:47;19.00;61.50
39519;DHT22;25200;53.394;10.414;2023-06-22T04:04:13;19.00;61.60
39519;DHT22;25200;53.394;10.414;2023-06-22T04:06:39;19.10;61.80
39519;DHT22;25200;53.394;10.414;2023-06-22T04:09:06;19.10;61.50
39519;DHT22;25200;53.394;10.414;2023-06-22T04:11:32;19.10;61.50
39519;DHT22;25200;53.394;10.414;2023-06-22T04:13:57;19.10;61.50
39519;DHT22;25200;53.394;10.414;2023-06-22T04:16:23;19.10;61.40
39519;DHT22;25200;53.394;10.414;2023-06-22T04:18:49;19.20;61.30
39519;DHT22;25200;53.394;10.414;2023-06-22T04:21:14;19.20;61.40
39519;DHT22;25200;53.394;10.414;2023-06-22T04:23:40;19.20;61.00
39519;DHT22;25200;53.394;10.414;2023-06-22T04:26:05;19.30;61.10
39519;DHT22;25200;53.394;10.414;2023-06-22T04:28:31;19.30;61.10
39519;DHT22;25200;53.394;10.414;2023-06-22T04:31:01;19.30;61.20
39519;DHT22;25200;53.394;10.414;2023-06-22T04:33:28;19.40;61.40
39519;DHT22;25200;53.394;10.414;2023-06-22T04:35:55;19.40;61.40
39519;DHT22;25200;53.394;10.414;2023-06-22T04:38:22;19.40;61.30
39519;DHT22;25200;53.394;10.414;2023-06-22T04:40:48;19.40;61.40
39519;DHT22;25200;53.394;10.414;2023-06-22T04:43:13;19.40;61.30
39519;DHT22;25200;53.394;10.414;2023-06-22T04:45:39;19.50;61.20
39519;DHT22;25200;53.394;10.414;2023-06-22T04:48:05;19.50;61.30
39519;DHT22;25200;53.394;10.414;2023-06-22T04:50:31;19.50;61.20
39519;DHT22;25200;53.394;10.414;2023-06-22T04:52:56;19.60;61.20
39519;DHT22;25200;53.394;10.414;2023-06-22T04:55:23;19.60;61.10
39519;DHT22;25200;53.394;10.414;2023-06-22T04:57:51;19.60;61.30
39519;DHT22;25200;53.394;10.414;2023-06-22T05:00:20;19.70;61.20
39519;DHT22;25200;53.394;10.414;2023-06-22T05:02:49;19.70;61.30
39519;DHT22;25200;53.394;10.414;2023-06-22T05:05:15;19.70;61.00
39519;DHT22;25200;53.394;10.414;2023-06-22T05:07:45;19.80;61.40
39519;DHT22;25200;53.394;10.414;2023-06-22T05:10:13;19.80;61.70
39519;DHT22;25200;53.394;10.414;2023-06-22T05:12:40;19.90;61.80
39519;DHT22;25200;53.394;10.414;2023-06-22T05:15:07;19.90;61.10
39519;DHT22;25200;53.394;10.414;2023-06-22T05:17:33;20.00;60.80
39519;DHT22;25200;53.394;10.414;2023-06-22T05:19:58;20.00;60.70
39519;DHT22;25200;53.394;10.414;2023-06-22T05:22:24;20.10;60.80
39519;DHT22;25200;53.394;10.414;2023-06-22T05:24:50;20.20;60.70
39519;DHT22;25200;53.394;10.414;2023-06-22T05:27:15;20.20;60.50
39519;DHT22;25200;53.394;10.414;2023-06-22T05:29:41;20.30;60.40
39519;DHT22;25200;53.394;10.414;2023-06-22T05:32:08;20.30;60.40
39519;DHT22;25200;53.394;10.414;2023-06-22T05:34:33;20.40;60.40
39519;DHT22;25200;53.394;10.414;2023-06-22T05:36:59;20.50;60.60
39519;DHT22;25200;53.394;10.414;2023-06-22T05:39:25;20.50;60.60
39519;DHT22;25200;53.394;10.414;2023-06-22T05:41:51;20.50;60.60
39519;DHT22;25200;53.394;10.414;2023-06-22T05:44:17;20.40;60.50
39519;DHT22;25200;53.394;10.414;2023-06-22T05:46:44;20.50;60.50
39519;DHT22;25200;53.394;10.414;2023-06-22T05:49:14;20.50;60.40
39519;DHT22;25200;53.394;10.414;2023-06-22T05:51:40;20.50;60.40
39519;DHT22;25200;53.394;10.414;2023-06-22T05:54:06;20.50;60.50
39519;DHT22;25200;53.394;10.414;2023-06-22T05:56:33;20.50;60.50
39519;DHT22;25200;53.394;10.414;2023-06-22T05:58:59;20.60;60.40
39519;DHT22;25200;53.394;10.414;2023-06-22T06:01:24;20.60;60.30
39519;DHT22;25200;53.394;10.414;2023-06-22T06:03:51;20.60;60.20
39519;DHT22;25200;53.394;10.414;2023-06-22T06:06:18;20.70;60.20
39519;DHT22;25200;53.394;10.414;2023-06-22T06:08:46;20.70;60.10
39519;DHT22;25200;53.394;10.414;2023-06-22T06:11:12;20.80;60.50
39519;DHT22;25200;53.394;10.414;2023-06-22T06:13:37;20.90;60.30
39519;DHT22;25200;53.394;10.414;2023-06-22T06:16:03;21.00;60.30
39519;DHT22;25200;53.394;10.414;2023-06-22T06:18:29;21.10;60.30
39519;DHT22;25200;53.394;10.414;2023-06-22T06:20:54;21.20;60.20
39519;DHT22;25200;53.394;10.414;2023-06-22T06:23:20;21.20;60.00
39519;DHT22;25200;53.394;10.414;2023-06-22T06:25:45;21.30;60.00
39519;DHT22;25200;53.394;10.414;2023-06-22T06:28:11;21.30;60.10
39519;DHT22;25200;53.394;10.414;2023-06-22T06:30:37;21.40;60.00
39519;DHT22;25200;53.394;10.414;2023-06-22T06:33:03;21.40;60.10
39519;DHT22;25200;53.394;10.414;2023-06-22T06:35:30;21.40;60.10
39519;DHT22;25200;53.394;10.414;2023-06-22T06:37:55;21.40;60.20
39519;DHT22;25200;53.394;10.414;2023-06-22T06:40:21;21.50;60.20
39519;DHT22;25200;53.394;10.414;2023-06-22T06:42:48;21.60;60.40
39519;DHT22;25200;53.394;10.414;2023-06-22T06:45:17;21.60;60.50
39519;DHT22;25200;53.394;10.414;2023-06-22T06:47:43;21.70;60.60
39519;DHT22;25200;53.394;10.414;2023-06-22T06:50:09;21.80;60.50
39519;DHT22;25200;53.394;10.414;2023-06-22T06:52:35;21.90;60.40
39519;DHT22;25200;53.394;10.414;2023-06-22T06:55:00;21.90;60.30
39519;DHT22;25200;53.394;10.414;2023-06-22T06:57:26;21.90;60.20
39519;DHT22;25200;53.394;10.414;2023-06-22T06:59:54;21.90;60.80
39519;DHT22;25200;53.394;10.414;2023-06-22T07:02:21;22.00;60.50
39519;DHT22;25200;53.394;10.414;2023-06-22T07:04:47;22.00;60.50
39519;DHT22;25200;53.394;10.414;2023-06-22T07:07:13;22.00;60.50
39519;DHT22;25200;53.394;10.414;2023-06-22T07:09:39;22.00;60.60
39519;DHT22;25200;53.394;10.414;2023-06-22T07:12:05;22.10;60.60
39519;DHT22;25200;53.394;10.414;2023-06-22T07:14:30;22.20;60.90
39519;DHT22;25200;53.394;10.414;2023-06-22T07:16:57;22.20;60.80
39519;DHT22;25200;53.394;10.414;2023-06-22T07:19:27;22.30;60.80
39519;DHT22;25200;53.394;10.414;2023-06-22T07:21:53;22.30;61.10
39519;DHT22;25200;53.394;10.414;2023-06-22T07:24:22;22.40;60.90
39519;DHT22;25200;53.394;10.414;2023-06-22T07:26:48;22.50;61.30
39519;DHT22;25200;53.394;10.414;2023-06-22T07:29:19;22.50;60.70
39519;DHT22;25200;53.394;10.414;2023-06-22T07:31:46;22.60;60.70
39519;DHT22;25200;53.394;10.414;2023-06-22T07:34:12;22.80;61.20
39519;DHT22;25200;53.394;10.414;2023-06-22T07:36:38;22.90;61.00
39519;DHT22;25200;53.394;10.414;2023-06-22T07:39:04;23.10;61.60
39519;DHT22;25200;53.394;10.414;2023-06-22T07:41:30;23.20;61.20
39519;DHT22;25200;53.394;10.414;2023-06-22T07:43:55;23.40;61.10
39519;DHT22;25200;53.394;10.414;2023-06-22T07:46:22;23.60;61.40
39519;DHT22;25200;53.394;10.414;2023-06-22T07:48:47;23.80;60.60
39519;DHT22;25200;53.394;10.414;2023-06-22T07:51:13;23.90;60.20
39519;DHT22;25200;53.394;10.414;2023-06-22T07:53:43;24.00;60.00
39519;DHT22;25200;53.394;10.414;2023-06-22T07:56:13;24.10;60.40
39519;DHT22;25200;53.394;10.414;2023-06-22T07:58:39;24.20;60.20
39519;DHT22;25200;53.394;10.414;2023-06-22T08:01:05;24.30;60.40
39519;DHT22;25200;53.394;10.414;2023-06-22T08:03:31;24.30;60.20
39519;DHT22;25200;53.394;10.414;2023-06-22T08:05:57;24.40;60.10
39519;DHT22;25200;53.394;10.414;2023-06-22T08:08:23;24.50;60.00
39519;DHT22;25200;53.394;10.414;2023-06-22T08:10:49;24.50;59.80
39519;DHT22;25200;53.394;10.414;2023-06-22T08:13:15;24.50;59.70
39519;DHT22;25200;53.394;10.414;2023-06-22T08:15:40;24.50;60.00
39519;DHT22;25200;53.394;10.414;2023-06-22T08:18:06;24.50;59.50
39519;DHT22;25200;53.394;10.414;2023-06-22T08:20:32;24.50;59.50
39519;DHT22;25200;53.394;10.414;2023-06-22T08:22:58;24.50;59.50
39519;DHT22;25200;53.394;10.414;2023-06-22T08:25:26;24.60;59.40
39519;DHT22;25200;53.394;10.414;2023-06-22T08:27:51;24.70;59.40
39519;DHT22;25200;53.394;10.414;2023-06-22T08:30:17;24.80;59.30
39519;DHT22;25200;53.394;10.414;2023-06-22T08:32:44;24.80;59.30
39519;DHT22;25200;53.394;10.414;2023-06-22T08:35:09;24.90;59.20
39519;DHT22;25200;53.394;10.414;2023-06-22T08:37:36;24.90;59.10
39519;DHT22;25200;53.394;10.414;2023-06-22T08:40:08;24.90;59.00
39519;DHT22;25200;53.394;10.414;2023-06-22T08:42:35;24.90;59.00
39519;DHT22;25200;53.394;10.414;2023-06-22T08:45:02;25.10;59.00
39519;DHT22;25200;53.394;10.414;2023-06-22T08:47:28;25.10;59.00
39519;DHT22;25200;53.394;10.414;2023-06-22T08:49:54;25.20;59.40
39519;DHT22;25200;53.394;10.414;2023-06-22T08:52:19;25.20;58.60
39519;DHT22;25200;53.394;10.414;2023-06-22T08:54:46;25.20;58.60
39519;DHT22;25200;53.394;10.414;2023-06-22T08:57:12;25.30;58.60
39519;DHT22;25200;53.394;10.414;2023-06-22T08:59:37;25.30;58.40
39519;DHT22;25200;53.394;10.414;2023-06-22T09:02:03;25.30;58.40
39519;DHT22;25200;53.394;10.414;2023-06-22T09:04:29;25.40;58.40
39519;DHT22;25200;53.394;10.414;2023-06-22T09:06:54;25.40;58.20
39519;DHT22;25200;53.394;10.414;2023-06-22T09:09:21;25.50;58.30
39519;DHT22;25200;53.394;10.414;2023-06-22T09:11:47;25.60;58.20
39519;DHT22;25200;53.394;10.414;2023-06-22T09:14:12;25.70;58.30
39519;DHT22;25200;53.394;10.414;2023-06-22T09:16:38;25.90;58.00
39519;DHT22;25200;53.394;10.414;2023-06-22T09:19:04;26.20;58.40
39519;DHT22;25200;53.394;10.414;2023-06-22T09:21:29;26.40;58.20
39519;DHT22;25200;53.394;10.414;2023-06-22T09:23:55;26.60;58.20
39519;DHT22;25200;53.394;10.414;2023-06-22T09:26:21;27.00;58.50
39519;DHT22;25200;53.394;10.414;2023-06-22T09:28:49;27.20;58.20
39519;DHT22;25200;53.394;10.414;2023-06-22T09:31:14;27.60;57.70
39519;DHT22;25200;53.394;10.414;2023-06-22T09:33:42;27.80;58.10
39519;DHT22;25200;53.394;10.414;2023-06-22T09:36:07;28.10;58.00
39519;DHT22;25200;53.394;10.414;2023-06-22T09:38:37;28.40;57.90
39519;DHT22;25200;53.394;10.414;2023-06-22T09:41:02;28.70;57.60
39519;DHT22;25200;53.394;10.414;2023-06-22T09:43:29;28.90;57.20
39519;DHT22;25200;53.394;10.414;2023-06-22T09:45:55;29.10;57.50
39519;DHT22;25200;53.394;10.414;2023-06-22T09:48:20;29.40;57.30
39519;DHT22;25200;53.394;10.414;2023-06-22T09:50:46;29.60;56.90
39519;DHT22;25200;53.394;10.414;2023-06-22T09:53:12;29.80;57.10
39519;DHT22;25200;53.394;10.414;2023-06-22T09:55:37;30.10;57.20
39519;DHT22;25200;53.394;10.414;2023-06-22T09:58:03;30.30;57.20
39519;DHT22;25200;53.394;10.414;2023-06-22T10:00:28;30.50;56.70
39519;DHT22;25200;53.394;10.414;2023-06-22T10:02:54;30.60;55.80
39519;DHT22;25200;53.394;10.414;2023-06-22T10:05:21;30.80;56.30
39519;DHT22;25200;53.394;10.414;2023-06-22T10:07:47;30.90;56.40
39519;DHT22;25200;53.394;10.414;2023-06-22T10:10:13;31.20;56.70
39519;DHT22;25200;53.394;10.414;2023-06-22T10:12:46;31.40;57.20
39519;DHT22;25200;53.394;10.414;2023-06-22T10:15:12;31.70;56.40
39519;DHT22;25200;53.394;10.414;2023-06-22T10:17:38;31.90;56.00
39519;DHT22;25200;53.394;10.414;2023-06-22T10:20:05;32.00;55.80
39519;DHT22;25200;53.394;10.414;2023-06-22T10:22:42;32.20;56.30
39519;DHT22;25200;53.394;10.414;2023-06-22T10:25:09;32.40;56.50
39519;DHT22;25200;53.394;10.414;2023-06-22T10:27:35;32.70;56.30
39519;DHT22;25200;53.394;10.414;2023-06-22T10:30:00;32.90;56.30
39519;DHT22;25200;53.394;10.414;2023-06-22T10:32:26;33.20;56.40
39519;DHT22;25200;53.394;10.414;2023-06-22T10:34:54;33.40;56.10
39519;DHT22;25200;53.394;10.414;2023-06-22T10:37:19;33.60;55.90
39519;DHT22;25200;53.394;10.414;2023-06-22T10:39:45;33.80;56.20
39519;DHT22;25200;53.394;10.414;2023-06-22T10:42:11;34.00;56.30
39519;DHT22;25200;53.394;10.414;2023-06-22T10:44:37;34.20;56.20
39519;DHT22;25200;53.394;10.414;2023-06-22T10:47:04;34.40;55.90
39519;DHT22;25200;53.394;10.414;2023-06-22T10:49:30;34.50;54.60
39519;DHT22;25200;53.394;10.414;2023-06-22T10:51:55;34.60;55.30
39519;DHT22;25200;53.394;10.414;2023-06-22T10:54:21;34.70;55.70
39519;DHT22;25200;53.394;10.414;2023-06-22T10:56:46;34.90;54.60
39519;DHT22;25200;53.394;10.414;2023-06-22T10:59:12;35.10;54.90
39519;DHT22;25200;53.394;10.414;2023-06-22T11:01:38;35.30;54.50
39519;DHT22;25200;53.394;10.414;2023-06-22T11:04:03;35.40;54.50
39519;DHT22;25200;53.394;10.414;2023-06-22T11:06:29;35.60;54.90
39519;DHT22;25200;53.394;10.414;2023-06-22T11:08:55;35.80;54.80
39519;DHT22;25200;53.394;10.414;2023-06-22T11:11:21;35.90;54.80
39519;DHT22;25200;53.394;10.414;2023-06-22T11:13:46;35.80;55.10
39519;DHT22;25200;53.394;10.414;2023-06-22T11:16:12;35.70;55.00
39519;DHT22;25200;53.394;10.414;2023-06-22T11:18:37;35.70;54.00
39519;DHT22;25200;53.394;10.414;2023-06-22T11:21:03;35.60;55.10
39519;DHT22;25200;53.394;10.414;2023-06-22T11:23:29;35.70;55.10
39519;DHT22;25200;53.394;10.414;2023-06-22T11:25:55;35.80;54.90
39519;DHT22;25200;53.394;10.414;2023-06-22T11:28:20;35.80;55.20
39519;DHT22;25200;53.394;10.414;2023-06-22T11:30:46;35.90;54.80
39519;DHT22;25200;53.394;10.414;2023-06-22T11:33:11;35.90;53.70
39519;DHT22;25200;53.394;10.414;2023-06-22T11:35:37;35.80;53.90
39519;DHT22;25200;53.394;10.414;2023-06-22T11:38:03;35.80;54.60
39519;DHT22;25200;53.394;10.414;2023-06-22T11:40:30;35.80;54.50
39519;DHT22;25200;53.394;10.414;2023-06-22T11:42:55;35.70;54.00
39519;DHT22;25200;53.394;10.414;2023-06-22T11:45:21;35.50;52.70
39519;DHT22;25200;53.394;10.414;2023-06-22T11:47:47;35.20;52.40
39519;DHT22;25200;53.394;10.414;2023-06-22T11:50:13;35.00;53.40
39519;DHT22;25200;53.394;10.414;2023-06-22T11:52:39;34.90;53.50
39519;DHT22;25200;53.394;10.414;2023-06-22T11:55:05;34.80;53.80
39519;DHT22;25200;53.394;10.414;2023-06-22T11:57:39;34.80;54.20
39519;DHT22;25200;53.394;10.414;2023-06-22T12:00:17;34.80;54.20
39519;DHT22;25200;53.394;10.414;2023-06-22T12:02:43;34.80;53.40
39519;DHT22;25200;53.394;10.414;2023-06-22T12:05:10;34.80;52.60
39519;DHT22;25200;53.394;10.414;2023-06-22T12:07:36;34.80;53.50
39519;DHT22;25200;53.394;10.414;2023-06-22T12:10:03;34.80;53.70
39519;DHT22;25200;53.394;10.414;2023-06-22T12:12:29;34.80;53.00
39519;DHT22;25200;53.394;10.414;2023-06-22T12:14:54;34.80;53.10
39519;DHT22;25200;53.394;10.414;2023-06-22T12:17:20;34.80;53.80
39519;DHT22;25200;53.394;10.414;2023-06-22T12:19:46;34.80;53.90
39519;DHT22;25200;53.394;10.414;2023-06-22T12:22:11;34.90;54.10
39519;DHT22;25200;53.394;10.414;2023-06-22T12:24:37;35.10;53.60
39519;DHT22;25200;53.394;10.414;2023-06-22T12:27:03;35.30;54.40
39519;DHT22;25200;53.394;10.414;2023-06-22T12:29:29;35.70;52.80
39519;DHT22;25200;53.394;10.414;2023-06-22T12:31:55;35.80;52.60
39519;DHT22;25200;53.394;10.414;2023-06-22T12:34:20;35.80;53.40
39519;DHT22;25200;53.394;10.414;2023-06-22T12:36:46;36.00;53.30
39519;DHT22;25200;53.394;10.414;2023-06-22T12:39:14;36.30;52.70
39519;DHT22;25200;53.394;10.414;2023-06-22T12:41:39;36.50;53.10
39519;DHT22;25200;53.394;10.414;2023-06-22T12:44:05;36.80;53.40
39519;DHT22;25200;53.394;10.414;2023-06-22T12:46:30;37.10;52.40
39519;DHT22;25200;53.394;10.414;2023-06-22T12:49:03;37.30;53.10
39519;DHT22;25200;53.394;10.414;2023-06-22T12:51:29;37.50;52.80
39519;DHT22;25200;53.394;10.414;2023-06-22T12:53:55;37.40;51.80
39519;DHT22;25200;53.394;10.414;2023-06-22T12:56:21;37.10;51.60
39519;DHT22;25200;53.394;10.414;2023-06-22T12:58:47;36.80;51.00
39519;DHT22;25200;53.394;10.414;2023-06-22T13:01:12;36.50;51.10
39519;DHT22;25200;53.394;10.414;2023-06-22T13:03:38;36.20;51.30
39519;DHT22;25200;53.394;10.414;2023-06-22T13:06:04;35.90;52.00
39519;DHT22;25200;53.394;10.414;2023-06-22T13:08:30;35.60;51.90
39519;DHT22;25200;53.394;10.414;2023-06-22T13:10:55;35.40;51.80
39519;DHT22;25200;53.394;10.414;2023-06-22T13:13:24;35.20;51.80
39519;DHT22;25200;53.394;10.414;2023-06-22T13:15:51;34.90;51.50
39519;DHT22;25200;53.394;10.414;2023-06-22T13:18:18;34.70;52.10
39519;DHT22;25200;53.394;10.414;2023-06-22T13:20:43;34.60;51.90
39519;DHT22;25200;53.394;10.414;2023-06-22T13:23:11;34.40;51.80
39519;DHT22;25200;53.394;10.414;2023-06-22T13:25:36;34.30;52.30
39519;DHT22;25200;53.394;10.414;2023-06-22T13:28:02;34.10;52.10
39519;DHT22;25200;53.394;10.414;2023-06-22T13:30:28;34.00;52.10
39519;DHT22;25200;53.394;10.414;2023-06-22T13:32:54;33.90;51.90
39519;DHT22;25200;53.394;10.414;2023-06-22T13:35:19;33.80;52.30
39519;DHT22;25200;53.394;10.414;2023-06-22T13:37:45;33.70;52.00
39519;DHT22;25200;53.394;10.414;2023-06-22T13:40:10;33.50;52.00
39519;DHT22;25200;53.394;10.414;2023-06-22T13:42:36;33.40;51.40
39519;DHT22;25200;53.394;10.414;2023-06-22T13:45:03;33.20;51.40
39519;DHT22;25200;53.394;10.414;2023-06-22T13:47:29;33.10;51.60
39519;DHT22;25200;53.394;10.414;2023-06-22T13:49:55;33.00;51.70
39519;DHT22;25200;53.394;10.414;2023-06-22T13:52:21;32.90;51.80
39519;DHT22;25200;53.394;10.414;2023-06-22T13:54:46;32.80;51.90
39519;DHT22;25200;53.394;10.414;2023-06-22T13:57:12;32.70;51.70
39519;DHT22;25200;53.394;10.414;2023-06-22T13:59:37;32.50;51.60
39519;DHT22;25200;53.394;10.414;2023-06-22T14:02:03;32.40;51.80
39519;DHT22;25200;53.394;10.414;2023-06-22T14:04:32;32.30;51.70
39519;DHT22;25200;53.394;10.414;2023-06-22T14:06:58;32.10;52.00
39519;DHT22;25200;53.394;10.414;2023-06-22T14:09:24;32.00;51.70
39519;DHT22;25200;53.394;10.414;2023-06-22T14:11:49;31.80;51.50
39519;DHT22;25200;53.394;10.414;2023-06-22T14:14:15;31.60;51.80
39519;DHT22;25200;53.394;10.414;2023-06-22T14:16:41;31.50;51.90
39519;DHT22;25200;53.394;10.414;2023-06-22T14:19:06;31.40;52.30
39519;DHT22;25200;53.394;10.414;2023-06-22T14:21:32;31.30;52.00
39519;DHT22;25200;53.394;10.414;2023-06-22T14:23:57;31.20;52.10
39519;DHT22;25200;53.394;10.414;2023-06-22T14:26:23;31.10;52.30
39519;DHT22;25200;53.394;10.414;2023-06-22T14:28:48;30.90;52.10
39519;DHT22;25200;53.394;10.414;2023-06-22T14:31:19;30.90;52.30
39519;DHT22;25200;53.394;10.414;2023-06-22T14:33:49;30.80;52.80
39519;DHT22;25200;53.394;10.414;2023-06-22T14:36:16;30.70;52.30
39519;DHT22;25200;53.394;10.414;2023-06-22T14:38:42;30.60;52.50
39519;DHT22;25200;53.394;10.414;2023-06-22T14:41:08;30.60;52.60
39519;DHT22;25200;53.394;10.414;2023-06-22T14:43:34;30.60;52.50
39519;DHT22;25200;53.394;10.414;2023-06-22T14:46:00;30.60;52.50
39519;DHT22;25200;53.394;10.414;2023-06-22T14:48:26;30.60;52.60
39519;DHT22;25200;53.394;10.414;2023-06-22T14:50:51;30.60;52.50
39519;DHT22;25200;53.394;10.414;2023-06-22T14:53:17;30.60;52.60
39519;DHT22;25200;53.394;10.414;2023-06-22T14:55:42;30.60;52.70
39519;DHT22;25200;53.394;10.414;2023-06-22T14:58:09;30.60;52.60
39519;DHT22;25200;53.394;10.414;2023-06-22T15:00:35;30.60;52.70
39519;DHT22;25200;53.394;10.414;2023-06-22T15:03:01;30.60;52.50
39519;DHT22;25200;53.394;10.414;2023-06-22T15:05:28;30.60;52.70
39519;DHT22;25200;53.394;10.414;2023-06-22T15:07:53;30.50;52.60
39519;DHT22;25200;53.394;10.414;2023-06-22T15:10:19;30.50;52.60
39519;DHT22;25200;53.394;10.414;2023-06-22T15:12:44;30.40;52.70
39519;DHT22;25200;53.394;10.414;2023-06-22T15:15:10;30.30;52.70
39519;DHT22;25200;53.394;10.414;2023-06-22T15:17:36;30.20;52.60
39519;DHT22;25200;53.394;10.414;2023-06-22T15:20:02;30.20;52.80
39519;DHT22;25200;53.394;10.414;2023-06-22T15:22:30;30.10;52.90